Flight Track Log - Related Links

Times and Time Zones

All times are in EDT time to prevent confusion due to time zone crossing. See the N589H flight status page for this flight to view local times or setup timezone preferences in your user account.

Time Position Orientation Groundspeed Altitude Reporting Facility
EDT Latitude Longitude Course Direction KTS MPH feet Rate Location/Type
Wed 10:16:47 AM 26.5472 -78.8811 242° Southwest 246 283 7,000  Level Miami Center
Wed 10:17:49 AM 26.5414 -78.9544 265° West 240 276 10,100 2,390 Climbing Miami Center
Wed 10:18:00 AM 26.3661 -79.1034 242° Southwest  Level Estimated
Wed 10:18:50 AM 26.5339 -79.0272 263° West 237 273 11,900  Level Miami Center
Wed 10:19:00 AM 26.3339 -79.1712 242° Southwest  Level Estimated
Wed 10:19:52 AM 26.4839 -79.0964 231° Southwest 279 321 11,900  Level Miami Center
Wed 10:20:00 AM 26.3016 -79.2390 242° Southwest  Level Estimated
Wed 10:20:54 AM 26.4294 -79.1722 231° Southwest 312 359 12,000  Level Miami Center
Wed 10:21:00 AM 26.2693 -79.3068 242° Southwest  Level Estimated
Wed 10:21:55 AM 26.3592 -79.2686 231° Southwest 322 371 12,000  Level Miami Center
Wed 10:22:00 AM 26.2370 -79.3745 242° Southwest  Level Estimated
Wed 10:22:57 AM 26.3031 -79.3464 231° Southwest 321 369 12,000  Level Miami Center
Wed 10:23:59 AM 26.2486 -79.4203 231° Southwest 322 371 11,900 -435 Descending Miami Center
Wed 10:25:01 AM 26.1947 -79.4961 232° Southwest 314 361 11,100 -935 Descending Miami Center
Wed 10:25:16 AM 26.1753 -79.5236 232° Southwest 311 358 10,700 -1,543 Descending Miami Center
Wed 10:26:11 AM 26.1253 -79.5919 231° Southwest 308 354 9,300 -1,444 Descending Miami Center
Wed 10:27:04 AM 26.0869 -79.6436 230° Southwest 307 353 8,100 -1,252 Descending Miami Center
Wed 10:28:06 AM 26.0575 -79.7214 247° West 278 320 6,900 -1,016 Descending Miami Center
Wed 10:29:08 AM 26.0261 -79.8197 250° West 280 322 6,000 -439 Descending Miami Center
Wed 10:30:09 AM 25.9964 -79.9056 249° West 296 341 6,000 -49 Level Miami Center
Wed 10:31:10 AM 25.9694 -79.9933 251° West 298 343 5,900 -98 Descending Miami Center
Wed 10:32:11 AM 25.9364 -80.0858 248° West 303 349 5,800 -639 Descending Miami Center
Wed 10:33:12 AM 25.9103 -80.1694 251° West 281 323 4,600 -931 Descending Miami Center
Wed 10:34:07 AM 25.8928 -80.2469 256° West 285 328 4,000 -443 Descending Miami Center
Wed 10:35:14 AM 25.8914 -80.3347 269° West 239 275 3,700 -469 Descending Miami Center
Wed 10:36:15 AM 25.8928 -80.4114 271° West 242 278 3,000 -393 Descending Miami Center
Wed 10:37:16 AM 25.8647 -80.4600 237° Southwest 181 208 2,900 -141 Descending Miami Center
Wed 10:38:23 AM 25.8336 -80.4283 138° Southeast 155 178 2,700 -639 Descending Miami Center
Wed 10:39:18 AM 25.8186 -80.3917 114° Southeast 124 143 1,600 -818 Descending Miami Center
Wed 10:40:13 AM 25.8081 -80.3631 112° Southeast 113 130 1,200 -348 Descending Miami Center
Wed 10:40:27 AM 25.8067 -80.3600 117° Southeast 117 135 1,200 -632 Level Miami Center
Wed 10:41:29 AM 25.8028 -80.3222 97° East 118 136 400 -774 Descending Miami Center
Wed 10:43:00 AM 25.7954 -80.2901 134° Southeast  Level Estimated
Wed 10:50:00 AM 25.7954 -80.2901 134° Southeast  Level Estimated

Login

Don't have an account? Register now (free) for customized features, flight alerts, and more!